createdAt,value
2022-08-11T00:00:40.136Z,18.60
2022-08-11T00:02:44.278Z,18.50
2022-08-11T00:04:48.322Z,18.40
2022-08-11T00:06:51.063Z,18.30
2022-08-11T00:08:53.800Z,18.30
2022-08-11T00:10:58.521Z,18.20
2022-08-11T00:13:03.374Z,18.10
2022-08-11T00:15:06.998Z,18.10
2022-08-11T00:17:10.502Z,18.00
2022-08-11T00:19:13.217Z,18.00
2022-08-11T00:21:17.276Z,17.90
2022-08-11T00:23:19.988Z,18.00
2022-08-11T00:25:23.243Z,18.00
2022-08-11T00:27:33.708Z,18.00
2022-08-11T00:29:36.411Z,18.00
2022-08-11T00:31:55.061Z,18.00
2022-08-11T00:33:57.876Z,18.00
2022-08-11T00:36:01.132Z,18.00
2022-08-11T00:38:05.198Z,18.00
2022-08-11T00:40:10.279Z,18.10
2022-08-11T00:42:19.518Z,18.00
2022-08-11T00:44:45.973Z,18.10
2022-08-11T00:46:56.670Z,18.10
2022-08-11T00:49:03.592Z,18.10
2022-08-11T00:51:10.873Z,18.10
2022-08-11T00:53:31.967Z,18.00
2022-08-11T00:56:12.315Z,18.00
2022-08-11T00:58:57.960Z,18.00
2022-08-11T01:01:10.039Z,17.90
2022-08-11T01:03:21.117Z,17.90
2022-08-11T01:05:38.656Z,17.90
2022-08-11T01:08:09.978Z,17.90
2022-08-11T01:10:37.299Z,17.80
2022-08-11T01:12:51.073Z,17.90
2022-08-11T01:15:25.468Z,17.90
2022-08-11T01:18:12.601Z,17.90
2022-08-11T01:20:46.864Z,17.80
2022-08-11T01:23:29.124Z,17.80
2022-08-11T01:25:56.760Z,17.80
2022-08-11T01:28:44.313Z,17.70
2022-08-11T01:31:19.545Z,17.50
2022-08-11T01:34:05.149Z,17.50
2022-08-11T01:36:39.776Z,17.50
2022-08-11T01:39:24.561Z,17.50
2022-08-11T01:42:11.897Z,17.40
2022-08-11T01:44:40.564Z,17.30
2022-08-11T01:46:46.301Z,17.20
2022-08-11T01:48:54.689Z,17.20
2022-08-11T01:51:04.414Z,17.10
2022-08-11T01:53:17.376Z,17.10
2022-08-11T01:55:26.701Z,17.10
2022-08-11T01:57:32.938Z,17.10
2022-08-11T01:59:37.185Z,17.00
2022-08-11T02:01:46.894Z,16.90
2022-08-11T02:03:55.073Z,16.90
2022-08-11T02:06:02.821Z,16.90
2022-08-11T02:08:12.745Z,16.90
2022-08-11T02:10:38.393Z,16.90
2022-08-11T02:12:52.315Z,16.90
2022-08-11T02:15:05.726Z,16.90
2022-08-11T02:17:16.567Z,16.80
2022-08-11T02:19:46.167Z,16.80
2022-08-11T02:22:09.340Z,16.80
2022-08-11T02:24:17.330Z,16.70
2022-08-11T02:26:23.168Z,16.60
2022-08-11T02:28:30.377Z,16.60
2022-08-11T02:30:34.898Z,16.60
2022-08-11T02:32:56.333Z,16.60
2022-08-11T02:35:05.186Z,16.50
2022-08-11T02:37:22.029Z,16.40
2022-08-11T02:39:31.002Z,16.40
2022-08-11T02:41:56.601Z,16.40
2022-08-11T02:44:11.851Z,16.40
2022-08-11T02:46:21.110Z,16.30
2022-08-11T02:48:49.256Z,16.30
2022-08-11T02:51:09.165Z,16.30
2022-08-11T02:53:14.110Z,16.20
2022-08-11T02:55:44.559Z,16.30
2022-08-11T02:57:50.927Z,16.30
2022-08-11T02:59:56.894Z,16.30
2022-08-11T03:02:04.801Z,16.30
2022-08-11T03:04:09.745Z,16.40
2022-08-11T03:06:16.288Z,16.40
2022-08-11T03:08:32.368Z,16.40
2022-08-11T03:10:42.580Z,16.40
2022-08-11T03:13:06.098Z,16.40
2022-08-11T03:15:29.800Z,16.40
2022-08-11T03:17:35.009Z,16.40
2022-08-11T03:19:42.992Z,16.30
2022-08-11T03:22:02.961Z,16.30
2022-08-11T03:24:14.919Z,16.20
2022-08-11T03:26:25.181Z,16.10
2022-08-11T03:28:30.526Z,16.10
2022-08-11T03:30:36.158Z,16.10
2022-08-11T03:32:42.555Z,16.00
2022-08-11T03:34:44.308Z,16.00
2022-08-11T03:37:17.680Z,15.80
2022-08-11T03:39:23.636Z,15.90
2022-08-11T03:41:59.279Z,15.90
2022-08-11T03:44:12.007Z,15.90
2022-08-11T03:46:17.264Z,15.90
2022-08-11T03:48:22.048Z,15.80
2022-08-11T03:50:31.253Z,15.60
2022-08-11T03:52:47.533Z,15.50
2022-08-11T03:54:56.056Z,15.40
2022-08-11T03:57:38.634Z,15.40
2022-08-11T04:00:12.582Z,15.40
2022-08-11T04:02:26.585Z,15.40
2022-08-11T04:05:08.631Z,15.50
2022-08-11T04:07:37.839Z,15.50
2022-08-11T04:10:03.942Z,15.40
2022-08-11T04:12:35.568Z,15.40
2022-08-11T04:15:36.139Z,15.50
2022-08-11T04:18:01.239Z,15.50
2022-08-11T04:20:33.688Z,15.50
2022-08-11T04:23:03.216Z,15.50
2022-08-11T04:25:32.019Z,15.50
2022-08-11T04:28:28.937Z,15.40
2022-08-11T04:30:43.569Z,15.40
2022-08-11T04:33:18.833Z,15.30
2022-08-11T04:35:28.100Z,15.40
2022-08-11T04:37:41.644Z,15.40
2022-08-11T04:40:13.198Z,15.40
2022-08-11T04:43:13.587Z,15.50
2022-08-11T04:45:38.798Z,15.60
2022-08-11T04:48:24.357Z,15.70
2022-08-11T04:51:04.066Z,15.80
2022-08-11T04:53:38.502Z,15.90
2022-08-11T04:56:06.556Z,16.00
2022-08-11T04:58:31.687Z,16.10
2022-08-11T05:00:58.248Z,16.10
2022-08-11T05:03:28.909Z,16.30
2022-08-11T05:05:42.515Z,16.40
2022-08-11T05:08:24.346Z,16.50
2022-08-11T05:10:43.023Z,16.60
2022-08-11T05:12:47.616Z,16.70
2022-08-11T05:15:09.468Z,16.80
2022-08-11T05:17:33.579Z,16.90
2022-08-11T05:20:05.945Z,17.10
2022-08-11T05:22:27.631Z,17.20
2022-08-11T05:24:49.773Z,17.30
2022-08-11T05:27:13.805Z,17.40
2022-08-11T05:29:55.240Z,17.60
2022-08-11T05:32:17.228Z,17.70
2022-08-11T05:34:40.340Z,17.80
2022-08-11T05:36:47.191Z,17.90
2022-08-11T05:39:11.913Z,18.00
2022-08-11T05:41:32.418Z,18.10
2022-08-11T05:44:20.035Z,18.20
2022-08-11T05:46:33.323Z,18.30
2022-08-11T05:48:54.726Z,18.50
2022-08-11T05:51:23.072Z,18.50
2022-08-11T05:53:50.532Z,18.60
2022-08-11T05:56:10.977Z,18.70
2022-08-11T05:58:13.679Z,18.80
2022-08-11T06:00:16.615Z,18.90
2022-08-11T06:02:19.330Z,18.90
2022-08-11T06:04:23.663Z,19.00
2022-08-11T06:06:29.055Z,19.10
2022-08-11T06:08:35.921Z,19.10
2022-08-11T06:10:40.298Z,19.20
2022-08-11T06:12:43.013Z,19.30
2022-08-11T06:14:46.050Z,19.40
2022-08-11T06:16:50.156Z,19.50
2022-08-11T06:18:52.860Z,19.60
2022-08-11T06:20:56.664Z,19.80
2022-08-11T06:23:03.612Z,19.90
2022-08-11T06:25:07.442Z,19.90
2022-08-11T06:27:13.144Z,20.10
2022-08-11T06:29:18.465Z,20.30
2022-08-11T06:31:24.060Z,20.50
2022-08-11T06:33:32.159Z,20.50
2022-08-11T06:35:38.011Z,20.50
2022-08-11T06:37:48.604Z,20.70
2022-08-11T06:40:04.792Z,21.00
2022-08-11T06:42:10.422Z,21.10
2022-08-11T06:44:24.318Z,21.30
2022-08-11T06:46:29.476Z,21.50
2022-08-11T06:48:33.568Z,21.70
2022-08-11T06:50:54.131Z,21.80
2022-08-11T06:52:56.842Z,22.00
2022-08-11T06:55:06.127Z,22.20
2022-08-11T06:57:30.249Z,22.20
2022-08-11T06:59:52.166Z,22.20
2022-08-11T07:02:04.258Z,22.50
2022-08-11T07:04:08.921Z,22.60
2022-08-11T07:06:22.188Z,22.70
2022-08-11T07:09:22.115Z,22.90
2022-08-11T07:12:01.843Z,22.90
2022-08-11T07:14:33.887Z,23.20
2022-08-11T07:16:40.500Z,23.40
2022-08-11T07:19:00.765Z,23.50
2022-08-11T07:22:00.529Z,23.70
2022-08-11T07:24:14.627Z,24.00
2022-08-11T07:26:35.196Z,24.30
2022-08-11T07:28:56.113Z,24.60
2022-08-11T07:31:02.251Z,24.70
2022-08-11T07:33:05.137Z,24.70
2022-08-11T07:35:10.032Z,24.90
2022-08-11T07:37:17.798Z,25.10
2022-08-11T07:39:22.287Z,25.20
2022-08-11T07:41:25.557Z,25.40
2022-08-11T07:43:28.273Z,25.60
2022-08-11T07:45:50.199Z,25.80
2022-08-11T07:48:11.324Z,25.90
2022-08-11T07:50:31.704Z,26.00
2022-08-11T07:52:37.094Z,26.10
2022-08-11T07:54:40.056Z,26.30
2022-08-11T07:57:07.321Z,26.50
2022-08-11T07:59:24.558Z,26.50
2022-08-11T08:02:05.952Z,26.70
2022-08-11T08:04:27.087Z,26.80
2022-08-11T08:06:48.017Z,26.90
2022-08-11T08:09:08.424Z,27.20
2022-08-11T08:11:28.877Z,27.20
2022-08-11T08:13:50.545Z,27.40
2022-08-11T08:16:11.412Z,27.50
2022-08-11T08:18:25.903Z,27.40
2022-08-11T08:20:31.432Z,27.60
2022-08-11T08:22:38.420Z,27.70
2022-08-11T08:24:51.178Z,27.70
2022-08-11T08:26:59.882Z,28.10
2022-08-11T08:29:17.706Z,28.10
2022-08-11T08:31:20.426Z,28.40
2022-08-11T08:33:25.279Z,28.60
2022-08-11T08:35:32.513Z,28.30
2022-08-11T08:37:45.992Z,28.70
2022-08-11T08:39:50.241Z,28.60
2022-08-11T08:41:55.016Z,28.60
2022-08-11T08:44:20.714Z,28.70
2022-08-11T08:46:25.692Z,28.60
2022-08-11T08:48:29.732Z,29.00
2022-08-11T08:50:52.107Z,29.20
2022-08-11T08:52:57.228Z,29.50
2022-08-11T08:55:02.750Z,29.50
2022-08-11T08:57:06.130Z,29.70
2022-08-11T08:59:08.849Z,29.70
2022-08-11T09:01:11.670Z,29.70
2022-08-11T09:05:38.566Z,30.00
2022-08-11T09:07:41.652Z,29.80
2022-08-11T09:09:44.972Z,30.10
2022-08-11T09:11:57.158Z,30.30
2022-08-11T09:14:03.141Z,30.40
2022-08-11T09:16:09.465Z,30.60
2022-08-11T09:18:12.173Z,30.40
2022-08-11T09:20:16.074Z,30.50
2022-08-11T09:22:39.227Z,30.00
2022-08-11T09:24:59.647Z,30.30
2022-08-11T09:27:06.202Z,30.60
2022-08-11T09:29:09.492Z,30.80
2022-08-11T09:31:13.419Z,31.10
2022-08-11T09:33:17.806Z,31.10
2022-08-11T09:35:20.961Z,31.10
2022-08-11T09:37:55.582Z,31.40
2022-08-11T09:40:16.783Z,31.40
2022-08-11T09:42:23.178Z,31.60
2022-08-11T09:44:43.875Z,31.80
2022-08-11T09:46:46.592Z,31.90
2022-08-11T09:48:49.305Z,31.80
2022-08-11T09:50:53.003Z,31.10
2022-08-11T09:53:34.926Z,31.90
2022-08-11T09:55:19.821Z,32.20
2022-08-11T09:57:40.300Z,32.40
2022-08-11T09:59:43.232Z,32.20
2022-08-11T10:01:49.094Z,32.80
2022-08-11T10:03:51.868Z,32.70
2022-08-11T10:06:14.486Z,32.50
2022-08-11T10:08:19.577Z,33.10
2022-08-11T10:10:22.915Z,33.30
2022-08-11T10:12:28.054Z,33.20
2022-08-11T10:14:49.165Z,33.40
2022-08-11T10:16:51.892Z,33.50
2022-08-11T10:18:54.605Z,33.50
2022-08-11T10:20:59.842Z,33.30
2022-08-11T10:23:20.428Z,33.50
2022-08-11T10:25:42.405Z,33.60
2022-08-11T10:28:28.804Z,33.80
2022-08-11T10:30:26.003Z,33.80
2022-08-11T10:32:58.085Z,33.30
2022-08-11T10:35:02.313Z,33.50
2022-08-11T10:37:15.021Z,33.10
2022-08-11T10:39:19.750Z,33.20
2022-08-11T10:42:03.389Z,33.00
2022-08-11T10:44:04.389Z,33.50
2022-08-11T10:46:30.341Z,33.20
2022-08-11T10:48:37.772Z,34.10
2022-08-11T10:50:58.234Z,34.60
2022-08-11T10:53:18.938Z,34.90
2022-08-11T10:55:39.347Z,34.80
2022-08-11T10:58:04.870Z,34.50
2022-08-11T11:00:09.846Z,34.60
2022-08-11T11:02:14.910Z,35.20
2022-08-11T11:04:18.509Z,35.10
2022-08-11T11:06:29.517Z,35.10
2022-08-11T11:08:50.483Z,35.30
2022-08-11T11:10:55.045Z,34.90
2022-08-11T11:13:16.565Z,34.50
2022-08-11T11:15:37.495Z,35.20
2022-08-11T11:17:57.093Z,34.70
2022-08-11T11:20:00.735Z,35.10
2022-08-11T11:22:23.499Z,35.30
2022-08-11T11:24:33.901Z,35.30
2022-08-11T11:26:41.367Z,35.20
2022-08-11T11:28:53.735Z,35.50
2022-08-11T11:31:06.367Z,35.90
2022-08-11T11:33:12.329Z,36.20
2022-08-11T11:35:26.670Z,36.30
2022-08-11T11:37:31.214Z,35.90
2022-08-11T11:39:34.132Z,35.60
2022-08-11T11:41:36.912Z,35.80
2022-08-11T11:43:39.632Z,35.50
2022-08-11T11:45:43.698Z,35.90
2022-08-11T11:47:46.425Z,35.50
2022-08-11T11:49:49.656Z,36.10
2022-08-11T11:51:53.374Z,35.90
2022-08-11T11:53:56.089Z,35.90
2022-08-11T11:55:59.207Z,35.90
2022-08-11T11:58:20.059Z,36.20
2022-08-11T12:00:43.532Z,36.40
2022-08-11T12:02:47.649Z,36.40
2022-08-11T12:04:51.208Z,36.60
2022-08-11T12:07:14.025Z,36.90
2022-08-11T12:09:20.911Z,35.90
2022-08-11T12:11:43.817Z,36.30
2022-08-11T12:13:49.166Z,35.80
2022-08-11T12:16:07.385Z,35.50
2022-08-11T12:18:16.119Z,35.80
2022-08-11T12:20:31.640Z,36.10
2022-08-11T12:22:55.849Z,36.20
2022-08-11T12:25:15.522Z,36.50
2022-08-11T12:27:25.742Z,36.50
2022-08-11T12:29:28.728Z,35.80
2022-08-11T12:31:31.448Z,36.70
2022-08-11T12:33:39.277Z,36.60
2022-08-11T12:35:42.283Z,36.10
2022-08-11T12:38:10.742Z,36.70
2022-08-11T12:40:49.617Z,36.90
2022-08-11T12:43:21.112Z,36.20
2022-08-11T12:45:29.811Z,36.40
2022-08-11T12:48:40.106Z,36.00
2022-08-11T12:50:34.343Z,36.20
2022-08-11T12:52:43.656Z,36.30
2022-08-11T12:54:59.660Z,35.50
2022-08-11T12:57:36.057Z,36.10
2022-08-11T12:59:57.245Z,36.20
2022-08-11T13:02:17.630Z,36.50
2022-08-11T13:04:38.245Z,36.40
2022-08-11T13:06:42.909Z,36.50
2022-08-11T13:08:46.066Z,36.20
2022-08-11T13:11:06.489Z,36.20
2022-08-11T13:13:52.740Z,36.60
2022-08-11T13:15:32.239Z,36.30
2022-08-11T13:17:40.282Z,36.10
2022-08-11T13:19:49.855Z,36.10
2022-08-11T13:21:54.127Z,36.20
2022-08-11T13:24:01.752Z,36.40
2022-08-11T13:26:05.702Z,36.20
2022-08-11T13:28:08.561Z,36.50
2022-08-11T13:30:30.033Z,36.50
2022-08-11T13:32:32.734Z,36.60
2022-08-11T13:34:41.505Z,35.70
2022-08-11T13:36:44.316Z,36.40
2022-08-11T13:38:50.139Z,35.90
2022-08-11T13:40:56.044Z,35.50
2022-08-11T13:42:59.687Z,35.10
2022-08-11T13:45:02.413Z,35.30
2022-08-11T13:47:05.670Z,34.90
2022-08-11T13:49:09.012Z,35.40
2022-08-11T13:51:34.286Z,35.20
2022-08-11T13:53:37.618Z,35.50
2022-08-11T13:55:51.471Z,35.70
2022-08-11T13:58:08.234Z,35.70
2022-08-11T14:00:25.048Z,35.90
2022-08-11T14:02:31.760Z,35.00
2022-08-11T14:04:37.086Z,34.50
2022-08-11T14:06:41.804Z,34.70
2022-08-11T14:08:47.198Z,34.90
2022-08-11T14:12:23.113Z,35.00
2022-08-11T14:13:43.110Z,35.00
2022-08-11T14:15:51.245Z,34.50
2022-08-11T14:17:56.237Z,34.70
2022-08-11T14:20:01.231Z,34.80
2022-08-11T14:22:22.995Z,34.60
2022-08-11T14:24:25.714Z,35.00
2022-08-11T14:26:31.577Z,35.00
2022-08-11T14:28:41.545Z,35.10
2022-08-11T14:31:00.481Z,34.90
2022-08-11T14:33:04.982Z,34.80
2022-08-11T14:35:19.995Z,34.90
2022-08-11T14:37:23.648Z,34.90
2022-08-11T14:39:27.044Z,34.60
2022-08-11T14:42:10.993Z,34.40
2022-08-11T14:44:28.704Z,34.60
2022-08-11T14:46:49.363Z,34.50
2022-08-11T14:48:52.997Z,34.30
2022-08-11T14:50:55.728Z,34.10
2022-08-11T14:53:00.307Z,33.90
2022-08-11T14:55:20.756Z,33.90
2022-08-11T14:57:54.323Z,33.90
2022-08-11T14:59:48.573Z,33.60
2022-08-11T15:02:09.299Z,33.80
2022-08-11T15:04:36.454Z,33.60
2022-08-11T15:06:34.739Z,33.60
2022-08-11T15:08:57.680Z,33.60
2022-08-11T15:11:00.403Z,33.50
2022-08-11T15:13:03.534Z,33.50
2022-08-11T15:15:25.130Z,33.50
2022-08-11T15:17:29.463Z,33.40
2022-08-11T15:20:00.492Z,33.10
2022-08-11T15:22:24.819Z,33.20
2022-08-11T15:24:31.029Z,33.00
2022-08-11T15:26:54.695Z,32.90
2022-08-11T15:29:18.518Z,32.90
2022-08-11T15:31:49.174Z,32.80
2022-08-11T15:34:11.336Z,32.80
2022-08-11T15:36:33.323Z,32.80
2022-08-11T15:38:36.732Z,32.70
2022-08-11T15:41:00.437Z,32.50
2022-08-11T15:43:30.045Z,32.50
2022-08-11T15:45:50.154Z,32.40
2022-08-11T15:47:58.430Z,32.30
2022-08-11T15:50:13.197Z,32.30
2022-08-11T15:52:18.705Z,32.20
2022-08-11T15:54:24.594Z,32.30
2022-08-11T15:56:27.651Z,32.10
2022-08-11T15:59:16.335Z,32.10
2022-08-11T16:01:32.132Z,32.10
2022-08-11T16:04:07.769Z,32.10
2022-08-11T16:06:11.879Z,32.10
2022-08-11T16:08:17.116Z,32.00
2022-08-11T16:10:28.929Z,31.90
2022-08-11T16:12:37.988Z,31.80
2022-08-11T16:14:59.575Z,31.70
2022-08-11T16:17:04.194Z,31.70
2022-08-11T16:19:10.026Z,31.70
2022-08-11T16:21:33.632Z,31.70
2022-08-11T16:23:38.004Z,31.50
2022-08-11T16:27:01.681Z,31.50
2022-08-11T16:28:05.304Z,31.50
2022-08-11T16:30:08.660Z,31.50
2022-08-11T16:32:20.335Z,31.30
2022-08-11T16:34:37.020Z,31.30
2022-08-11T16:36:57.049Z,31.30
2022-08-11T16:38:59.780Z,31.30
2022-08-11T16:41:07.120Z,31.30
2022-08-11T16:43:32.289Z,31.30
2022-08-11T16:45:52.843Z,31.30
2022-08-11T16:48:03.050Z,31.20
2022-08-11T16:50:07.968Z,31.10
2022-08-11T16:52:12.768Z,31.00
2022-08-11T16:54:15.487Z,31.10
2022-08-11T16:56:20.531Z,31.00
2022-08-11T16:58:41.083Z,31.00
2022-08-11T17:00:44.228Z,30.90
2022-08-11T17:03:05.707Z,30.90
2022-08-11T17:05:30.902Z,30.70
2022-08-11T17:07:51.805Z,30.70
2022-08-11T17:10:39.019Z,30.70
2022-08-11T17:12:52.832Z,30.60
2022-08-11T17:14:57.969Z,30.60
2022-08-11T17:17:00.749Z,30.40
2022-08-11T17:19:06.282Z,30.40
2022-08-11T17:21:13.460Z,30.40
2022-08-11T17:23:33.546Z,30.30
2022-08-11T17:25:59.127Z,30.30
2022-08-11T17:27:58.975Z,30.20
2022-08-11T17:30:03.137Z,30.20
2022-08-11T17:32:24.953Z,30.20
2022-08-11T17:34:45.357Z,30.10
2022-08-11T17:36:51.312Z,30.10
2022-08-11T17:38:54.024Z,30.00
2022-08-11T17:41:23.091Z,30.00
2022-08-11T17:43:43.792Z,29.90
2022-08-11T17:46:04.833Z,29.90
2022-08-11T17:48:27.299Z,29.80
2022-08-11T17:50:30.025Z,29.80
2022-08-11T17:52:51.580Z,29.70
2022-08-11T17:55:13.474Z,29.60
2022-08-11T17:57:33.892Z,29.50
2022-08-11T17:59:56.833Z,29.40
2022-08-11T18:02:21.109Z,29.40
2022-08-11T18:04:35.036Z,29.40
2022-08-11T18:06:38.073Z,29.30
2022-08-11T18:09:01.901Z,29.20
2022-08-11T18:12:06.094Z,29.10
2022-08-11T18:14:02.923Z,29.00
2022-08-11T18:16:23.260Z,28.90
2022-08-11T18:18:43.799Z,28.90
2022-08-11T18:21:04.226Z,28.80
2022-08-11T18:23:45.819Z,28.70
2022-08-11T18:26:08.533Z,28.60
2022-08-11T18:28:29.045Z,28.50
2022-08-11T18:30:50.454Z,28.50
2022-08-11T18:35:53.508Z,28.30
2022-08-11T18:38:13.936Z,28.20
2022-08-11T18:40:36.225Z,28.10
2022-08-11T18:42:58.105Z,28.00
2022-08-11T18:45:20.695Z,28.00
2022-08-11T18:47:41.247Z,27.90
2022-08-11T18:50:05.108Z,27.80
2022-08-11T18:52:26.015Z,27.70
2022-08-11T18:54:51.205Z,27.60
2022-08-11T18:57:13.447Z,27.50
2022-08-11T18:59:36.765Z,27.40
2022-08-11T19:01:57.148Z,27.40
2022-08-11T19:04:19.073Z,27.30
2022-08-11T19:06:41.182Z,27.20
2022-08-11T19:09:17.646Z,27.20
2022-08-11T19:11:42.775Z,27.10
2022-08-11T19:14:06.406Z,27.00
2022-08-11T19:16:28.180Z,27.00
2022-08-11T19:18:48.655Z,27.00
2022-08-11T19:21:09.072Z,26.90
2022-08-11T19:23:31.837Z,26.80
2022-08-11T19:25:52.256Z,26.70
2022-08-11T19:28:12.652Z,26.70
2022-08-11T19:30:33.131Z,26.60
2022-08-11T19:32:54.855Z,26.50
2022-08-11T19:35:15.636Z,26.40
2022-08-11T19:37:44.457Z,26.40
2022-08-11T19:40:04.968Z,26.30
2022-08-11T19:42:25.455Z,26.20
2022-08-11T19:44:45.837Z,26.10
2022-08-11T19:47:06.888Z,26.00
2022-08-11T19:49:29.074Z,25.90
2022-08-11T19:51:53.415Z,25.90
2022-08-11T19:54:14.657Z,25.80
2022-08-11T19:56:35.254Z,25.80
2022-08-11T19:58:55.814Z,25.70
2022-08-11T20:01:16.263Z,25.70
2022-08-11T20:03:36.839Z,25.70
2022-08-11T20:05:59.909Z,25.50
2022-08-11T20:08:20.619Z,25.50
2022-08-11T20:10:41.108Z,25.40
2022-08-11T20:13:01.540Z,25.40
2022-08-11T20:15:21.832Z,25.30
2022-08-11T20:17:44.797Z,25.30
2022-08-11T20:20:05.165Z,25.20
2022-08-11T20:22:26.936Z,25.10
2022-08-11T20:24:47.377Z,25.00
2022-08-11T20:27:07.765Z,25.00
2022-08-11T20:29:46.917Z,24.90
2022-08-11T20:32:09.748Z,24.90
2022-08-11T20:34:30.471Z,24.70
2022-08-11T20:36:54.470Z,24.70
2022-08-11T20:39:16.876Z,24.60
2022-08-11T20:41:58.841Z,24.40
2022-08-11T20:44:17.512Z,24.40
2022-08-11T20:46:37.920Z,24.40
2022-08-11T20:48:58.424Z,24.30
2022-08-11T20:51:18.925Z,24.20
2022-08-11T20:53:40.607Z,24.20
2022-08-11T20:56:06.605Z,24.20
2022-08-11T20:58:41.500Z,24.10
2022-08-11T21:01:07.795Z,24.20
2022-08-11T21:03:45.330Z,24.10
2022-08-11T21:06:31.232Z,24.10
2022-08-11T21:08:54.919Z,24.10
2022-08-11T21:11:27.436Z,24.10
2022-08-11T21:13:51.467Z,24.00
2022-08-11T21:16:25.105Z,23.90
2022-08-11T21:18:47.398Z,23.90
2022-08-11T21:21:07.864Z,23.70
2022-08-11T21:23:36.695Z,23.70
2022-08-11T21:25:59.812Z,23.60
2022-08-11T21:28:23.093Z,23.60
2022-08-11T21:30:44.159Z,23.60
2022-08-11T21:33:04.726Z,23.50
2022-08-11T21:35:26.209Z,23.40
2022-08-11T21:37:46.606Z,23.40
2022-08-11T21:40:14.916Z,23.10
2022-08-11T21:42:37.260Z,23.00
2022-08-11T21:44:59.544Z,23.00
2022-08-11T21:47:21.463Z,22.90
2022-08-11T21:50:00.721Z,22.90
2022-08-11T21:52:21.188Z,22.80
2022-08-11T21:54:41.781Z,22.80
2022-08-11T21:57:02.224Z,22.80
2022-08-11T21:59:22.841Z,22.90
2022-08-11T22:01:44.711Z,22.90
2022-08-11T22:04:04.991Z,22.90
2022-08-11T22:06:25.619Z,22.90
2022-08-11T22:08:46.786Z,22.90
2022-08-11T22:11:07.353Z,22.90
2022-08-11T22:13:27.845Z,22.80
2022-08-11T22:15:48.343Z,22.80
2022-08-11T22:18:10.181Z,22.80
2022-08-11T22:20:30.709Z,22.80
2022-08-11T22:22:52.958Z,22.70
2022-08-11T22:25:16.695Z,22.60
2022-08-11T22:27:39.096Z,22.60
2022-08-11T22:29:59.504Z,22.60
2022-08-11T22:32:19.882Z,22.60
2022-08-11T22:34:52.560Z,22.70
2022-08-11T22:37:27.206Z,22.60
2022-08-11T22:39:58.328Z,22.60
2022-08-11T22:42:33.258Z,22.50
2022-08-11T22:44:54.307Z,22.50
2022-08-11T22:47:18.446Z,22.50
2022-08-11T22:49:57.871Z,22.50
2022-08-11T22:52:18.501Z,22.50
2022-08-11T22:54:39.062Z,22.40
2022-08-11T22:56:59.575Z,22.50
2022-08-11T22:59:20.163Z,22.50
2022-08-11T23:01:54.632Z,22.50
2022-08-11T23:04:16.753Z,22.50
2022-08-11T23:06:38.986Z,22.40
2022-08-11T23:08:59.507Z,22.40
2022-08-11T23:11:21.492Z,22.40
2022-08-11T23:13:42.049Z,22.40
2022-08-11T23:16:02.481Z,22.30
2022-08-11T23:18:23.061Z,22.10
2022-08-11T23:20:53.005Z,21.60
2022-08-11T23:23:16.158Z,21.50
2022-08-11T23:25:36.751Z,21.30
2022-08-11T23:27:57.227Z,21.20
2022-08-11T23:30:18.788Z,21.30
2022-08-11T23:32:39.804Z,21.30
2022-08-11T23:35:04.021Z,21.30
2022-08-11T23:37:42.420Z,21.10
2022-08-11T23:40:04.175Z,21.00
2022-08-11T23:42:24.676Z,21.00
2022-08-11T23:44:45.165Z,21.00
2022-08-11T23:47:05.473Z,20.80
2022-08-11T23:49:26.430Z,20.70
2022-08-11T23:51:46.839Z,20.60
2022-08-11T23:54:07.939Z,20.50
2022-08-11T23:56:29.656Z,20.40
2022-08-11T23:58:50.073Z,20.30
